North Hudson, Wisconsin
Current Conditions -  °F | °C
As of 11:30 PM on Friday 19 Dec 2014 (Local Time) from K21D Reporting Station
Overcast Overcast  
Wind Chill: -5°   Ceiling: 1400
Heat Index: -1°   Visibility: 10mi
Dew Point: -3°   Wind: 8mph
Humidity: 86%   Direction: 160°SSE
Pressure: 30.18"   Gusts: NA
Location:  44.9743°N, 92.6899°W
Report Text: K21D 200530Z AUTO 16007KT 10SM OVC014 M01/M03 A3018 RMK AO2
Loading
Personal Weather Stations






























Interactive Weather Map New forecast layout! Learn more

10-Day Weather Forecast

Advertisements
Track Severe Weather on mobile